NPT592 EKVG-EGPH
Flight info
| Callsign | NPT592 |
|---|---|
| Flight time | 1h 10m |
| Altitude | 39000 |
| Route | ODEVA DCT NALAN DCT LAGAV N560 FOYLE DCT STIRA |
| Aircraft | B738/M-SDE2E3FGHIRWXY/LB1 |
Departure
| Time | 2026-04-20 19:14 |
|---|---|
| Airport | Vágar Airport (EKVG) |
Arrival
| Time | 2026-04-20 20:24 |
|---|---|
| Airport | Edinburgh Airport (EGPH) |
| Time | Latitude | Longitude | Altitude | Speed | Heading |
|---|---|---|---|---|---|
| 2026-04-20 18:27 | 62.06664 | -7.27871 | 278 ft | 0 kts | 28° |
| 2026-04-20 19:05 | 62.06661 | -7.27875 | 251 ft | 3 kts | 27° |
| 2026-04-20 19:05 | 62.06639 | -7.27888 | 281 ft | 4 kts | 338° |
| 2026-04-20 19:05 | 62.06622 | -7.27857 | 279 ft | 2 kts | 297° |
| 2026-04-20 19:05 | 62.06622 | -7.27854 | 282 ft | 3 kts | 297° |
| 2026-04-20 19:10 | 62.06633 | -7.27903 | 281 ft | 8 kts | 296° |
| 2026-04-20 19:10 | 62.06652 | -7.28036 | 278 ft | 10 kts | 270° |
| 2026-04-20 19:11 | 62.06595 | -7.28088 | 277 ft | 11 kts | 183° |
| 2026-04-20 19:11 | 62.06521 | -7.28127 | 281 ft | 11 kts | 202° |
| 2026-04-20 19:11 | 62.06492 | -7.28255 | 279 ft | 11 kts | 294° |
| 2026-04-20 19:11 | 62.06534 | -7.28428 | 278 ft | 15 kts | 298° |
| 2026-04-20 19:12 | 62.06591 | -7.28655 | 275 ft | 19 kts | 298° |
| 2026-04-20 19:12 | 62.06657 | -7.28922 | 271 ft | 22 kts | 296° |
| 2026-04-20 19:12 | 62.06714 | -7.29128 | 268 ft | 12 kts | 315° |
| 2026-04-20 19:12 | 62.06720 | -7.29208 | 268 ft | 4 kts | 188° |
| 2026-04-20 19:13 | 62.06713 | -7.29158 | 268 ft | 4 kts | 100° |
| 2026-04-20 19:13 | 62.06707 | -7.29127 | 268 ft | 0 kts | 113° |
| 2026-04-20 19:13 | 62.06601 | -7.28698 | 274 ft | 80 kts | 117° |
| 2026-04-20 19:14 | 62.06197 | -7.27088 | 381 ft | 155 kts | 117° |
| 2026-04-20 19:14 | 62.05684 | -7.25054 | 1563 ft | 152 kts | 114° |
| 2026-04-20 19:14 | 62.05155 | -7.23128 | 2800 ft | 151 kts | 130° |
| 2026-04-20 19:14 | 62.04216 | -7.22011 | 3871 ft | 166 kts | 163° |
| 2026-04-20 19:15 | 62.03003 | -7.22329 | 4762 ft | 193 kts | 202° |
| 2026-04-20 19:15 | 62.01697 | -7.23490 | 5450 ft | 215 kts | 187° |
| 2026-04-20 19:15 | 62.00130 | -7.23721 | 5853 ft | 243 kts | 173° |
| 2026-04-20 19:15 | 61.98409 | -7.23174 | 6664 ft | 254 kts | 161° |
| 2026-04-20 19:16 | 61.96785 | -7.21727 | 7784 ft | 253 kts | 144° |
| 2026-04-20 19:16 | 61.95420 | -7.19352 | 8851 ft | 256 kts | 129° |
| 2026-04-20 19:16 | 61.94373 | -7.16296 | 9936 ft | 257 kts | 114° |
| 2026-04-20 19:16 | 61.93745 | -7.12816 | 11008 ft | 257 kts | 100° |
| 2026-04-20 19:17 | 61.93481 | -7.09034 | 11916 ft | 267 kts | 94° |
| 2026-04-20 19:17 | 61.93242 | -7.04886 | 12237 ft | 299 kts | 94° |
| 2026-04-20 19:17 | 61.92968 | -7.00386 | 12995 ft | 312 kts | 95° |
| 2026-04-20 19:17 | 61.92680 | -6.95781 | 14047 ft | 317 kts | 94° |
| 2026-04-20 19:18 | 61.92385 | -6.91128 | 15056 ft | 320 kts | 94° |
| 2026-04-20 19:18 | 61.92085 | -6.86419 | 16012 ft | 324 kts | 94° |
| 2026-04-20 19:18 | 61.91781 | -6.81654 | 16962 ft | 328 kts | 93° |
| 2026-04-20 19:18 | 61.91472 | -6.76827 | 17898 ft | 332 kts | 93° |
| 2026-04-20 19:19 | 61.91157 | -6.71925 | 18839 ft | 337 kts | 92° |
| 2026-04-20 19:19 | 61.90722 | -6.66998 | 19641 ft | 347 kts | 103° |
| 2026-04-20 19:19 | 61.89524 | -6.62458 | 20500 ft | 362 kts | 123° |
| 2026-04-20 19:19 | 61.87621 | -6.58818 | 21353 ft | 378 kts | 141° |
| 2026-04-20 19:20 | 61.85163 | -6.56507 | 22150 ft | 393 kts | 154° |
| 2026-04-20 19:20 | 61.82550 | -6.54657 | 22889 ft | 399 kts | 155° |
| 2026-04-20 19:20 | 61.79879 | -6.52891 | 23603 ft | 405 kts | 156° |
| 2026-04-20 19:20 | 61.77166 | -6.51128 | 24313 ft | 409 kts | 155° |
| 2026-04-20 19:21 | 61.74437 | -6.49345 | 24956 ft | 413 kts | 154° |
| 2026-04-20 19:21 | 61.71678 | -6.47518 | 25483 ft | 419 kts | 154° |
| 2026-04-20 19:21 | 61.68883 | -6.45647 | 26020 ft | 424 kts | 154° |
| 2026-04-20 19:21 | 61.66061 | -6.43747 | 26571 ft | 428 kts | 154° |
| 2026-04-20 19:22 | 61.63249 | -6.41849 | 27103 ft | 433 kts | 154° |
| 2026-04-20 19:22 | 61.60369 | -6.39905 | 27625 ft | 437 kts | 154° |
| 2026-04-20 19:22 | 61.57460 | -6.37942 | 28137 ft | 442 kts | 154° |
| 2026-04-20 19:22 | 61.54516 | -6.35960 | 28628 ft | 446 kts | 154° |
| 2026-04-20 19:23 | 61.51547 | -6.33966 | 29163 ft | 450 kts | 154° |
| 2026-04-20 19:23 | 61.48553 | -6.31959 | 29659 ft | 454 kts | 154° |
| 2026-04-20 19:23 | 61.45532 | -6.29938 | 30121 ft | 458 kts | 154° |
| 2026-04-20 19:23 | 61.42478 | -6.27900 | 30569 ft | 462 kts | 154° |
| 2026-04-20 19:24 | 61.39403 | -6.25852 | 30941 ft | 466 kts | 154° |
| 2026-04-20 19:24 | 61.36306 | -6.23795 | 31339 ft | 468 kts | 154° |
| 2026-04-20 19:24 | 61.33194 | -6.21733 | 31743 ft | 470 kts | 154° |
| 2026-04-20 19:24 | 61.30069 | -6.19668 | 32166 ft | 471 kts | 155° |
| 2026-04-20 19:25 | 61.26949 | -6.17612 | 32695 ft | 470 kts | 155° |
| 2026-04-20 19:25 | 61.23841 | -6.15568 | 33260 ft | 468 kts | 155° |
| 2026-04-20 19:25 | 61.20740 | -6.13532 | 33792 ft | 466 kts | 155° |
| 2026-04-20 19:25 | 61.17651 | -6.11505 | 34350 ft | 465 kts | 155° |
| 2026-04-20 19:26 | 61.14577 | -6.09492 | 34863 ft | 462 kts | 155° |
| 2026-04-20 19:26 | 61.11513 | -6.07489 | 35276 ft | 462 kts | 156° |
| 2026-04-20 19:26 | 61.08447 | -6.05487 | 35655 ft | 462 kts | 156° |
| 2026-04-20 19:26 | 61.05387 | -6.03494 | 36050 ft | 461 kts | 156° |
| 2026-04-20 19:27 | 61.02330 | -6.01507 | 36473 ft | 459 kts | 156° |
| 2026-04-20 19:27 | 60.99298 | -5.99510 | 36899 ft | 457 kts | 155° |
| 2026-04-20 19:27 | 60.96299 | -5.97321 | 37153 ft | 458 kts | 154° |
| 2026-04-20 19:27 | 60.93314 | -5.94998 | 37414 ft | 458 kts | 154° |
| 2026-04-20 19:28 | 60.90350 | -5.92641 | 37599 ft | 457 kts | 154° |
| 2026-04-20 19:28 | 60.84420 | -5.87933 | 37563 ft | 454 kts | 154° |
| 2026-04-20 19:29 | 60.78539 | -5.83346 | 37561 ft | 452 kts | 154° |
| 2026-04-20 19:29 | 60.72653 | -5.78808 | 37556 ft | 452 kts | 154° |
| 2026-04-20 19:30 | 60.66800 | -5.74327 | 37553 ft | 452 kts | 154° |
| 2026-04-20 19:30 | 60.60906 | -5.69833 | 37569 ft | 453 kts | 154° |
| 2026-04-20 19:31 | 60.55001 | -5.65346 | 37552 ft | 453 kts | 155° |
| 2026-04-20 19:31 | 60.49085 | -5.60869 | 37545 ft | 454 kts | 155° |
| 2026-04-20 19:32 | 60.43165 | -5.56406 | 37548 ft | 454 kts | 155° |
| 2026-04-20 19:32 | 60.37245 | -5.51961 | 37539 ft | 454 kts | 155° |
| 2026-04-20 19:33 | 60.31323 | -5.47530 | 37549 ft | 454 kts | 155° |
| 2026-04-20 19:33 | 60.25389 | -5.43108 | 37537 ft | 454 kts | 155° |
| 2026-04-20 19:34 | 60.19454 | -5.38703 | 37533 ft | 454 kts | 155° |
| 2026-04-20 19:34 | 60.13527 | -5.34321 | 37526 ft | 454 kts | 155° |
| 2026-04-20 19:35 | 60.07601 | -5.29955 | 37539 ft | 454 kts | 155° |
| 2026-04-20 19:35 | 60.01671 | -5.25604 | 37533 ft | 454 kts | 155° |
| 2026-04-20 19:36 | 59.95745 | -5.21273 | 37522 ft | 453 kts | 155° |
| 2026-04-20 19:36 | 59.89837 | -5.16972 | 37522 ft | 452 kts | 155° |
| 2026-04-20 19:37 | 59.83930 | -5.12687 | 37514 ft | 451 kts | 155° |
| 2026-04-20 19:37 | 59.78075 | -5.08455 | 37531 ft | 450 kts | 156° |
| 2026-04-20 19:38 | 59.72182 | -5.04211 | 37517 ft | 450 kts | 156° |
| 2026-04-20 19:38 | 59.66296 | -4.99989 | 37512 ft | 450 kts | 156° |
| 2026-04-20 19:39 | 59.60412 | -4.95784 | 37503 ft | 450 kts | 156° |
| 2026-04-20 19:39 | 59.54520 | -4.91589 | 37508 ft | 449 kts | 156° |
| 2026-04-20 19:40 | 59.49634 | -4.88122 | 37523 ft | 450 kts | 156° |
| 2026-04-20 19:40 | 59.42745 | -4.83252 | 37501 ft | 450 kts | 156° |
| 2026-04-20 19:41 | 59.36855 | -4.79105 | 37498 ft | 450 kts | 156° |
| 2026-04-20 19:41 | 59.30999 | -4.74997 | 37497 ft | 450 kts | 156° |
| 2026-04-20 19:42 | 59.25067 | -4.70851 | 37484 ft | 450 kts | 156° |
| 2026-04-20 19:42 | 59.19168 | -4.66743 | 37498 ft | 450 kts | 156° |
| 2026-04-20 19:43 | 59.13310 | -4.62679 | 37487 ft | 450 kts | 156° |
| 2026-04-20 19:43 | 59.07412 | -4.58602 | 37486 ft | 450 kts | 156° |
| 2026-04-20 19:44 | 59.01513 | -4.54539 | 37482 ft | 449 kts | 156° |
| 2026-04-20 19:44 | 58.95617 | -4.50493 | 37485 ft | 449 kts | 156° |
| 2026-04-20 19:45 | 58.89727 | -4.46465 | 37485 ft | 449 kts | 157° |
| 2026-04-20 19:45 | 58.83832 | -4.42449 | 37481 ft | 449 kts | 157° |
| 2026-04-20 19:46 | 58.77943 | -4.38453 | 37477 ft | 448 kts | 157° |
| 2026-04-20 19:46 | 58.72068 | -4.34479 | 37469 ft | 447 kts | 157° |
| 2026-04-20 19:47 | 58.66200 | -4.30524 | 37471 ft | 446 kts | 157° |
| 2026-04-20 19:47 | 58.60340 | -4.26589 | 37463 ft | 446 kts | 157° |
| 2026-04-20 19:48 | 58.54488 | -4.22672 | 37472 ft | 446 kts | 157° |
| 2026-04-20 19:48 | 58.48631 | -4.18767 | 37463 ft | 445 kts | 157° |
| 2026-04-20 19:49 | 58.42818 | -4.14904 | 37468 ft | 445 kts | 157° |
| 2026-04-20 19:49 | 58.36961 | -4.11025 | 37472 ft | 446 kts | 157° |
| 2026-04-20 19:50 | 58.31092 | -4.07153 | 37462 ft | 447 kts | 158° |
| 2026-04-20 19:50 | 58.25210 | -4.03286 | 37456 ft | 447 kts | 158° |
| 2026-04-20 19:51 | 58.19322 | -3.99428 | 37453 ft | 448 kts | 158° |
| 2026-04-20 19:51 | 58.13424 | -3.95577 | 37461 ft | 448 kts | 158° |
| 2026-04-20 19:52 | 58.07520 | -3.91736 | 37439 ft | 449 kts | 158° |
| 2026-04-20 19:52 | 58.01615 | -3.87908 | 37443 ft | 449 kts | 158° |
| 2026-04-20 19:53 | 57.95704 | -3.84089 | 37433 ft | 449 kts | 158° |
| 2026-04-20 19:53 | 57.89795 | -3.80285 | 37432 ft | 449 kts | 158° |
| 2026-04-20 19:54 | 57.83888 | -3.76495 | 37444 ft | 449 kts | 158° |
| 2026-04-20 19:54 | 57.77970 | -3.72711 | 37429 ft | 449 kts | 158° |
| 2026-04-20 19:55 | 57.72064 | -3.68949 | 37426 ft | 448 kts | 159° |
| 2026-04-20 19:55 | 57.66154 | -3.65196 | 37425 ft | 448 kts | 159° |
| 2026-04-20 19:56 | 57.61246 | -3.62090 | 37429 ft | 448 kts | 159° |
| 2026-04-20 19:56 | 57.54347 | -3.57738 | 37432 ft | 448 kts | 159° |
| 2026-04-20 19:57 | 57.49514 | -3.54704 | 37411 ft | 429 kts | 159° |
| 2026-04-20 19:57 | 57.45815 | -3.52391 | 37306 ft | 412 kts | 159° |
| 2026-04-20 19:57 | 57.44020 | -3.51269 | 37057 ft | 409 kts | 159° |
| 2026-04-20 19:57 | 57.41299 | -3.49565 | 36157 ft | 419 kts | 159° |
| 2026-04-20 19:58 | 57.38500 | -3.47810 | 35231 ft | 430 kts | 159° |
| 2026-04-20 19:58 | 57.35648 | -3.46026 | 34516 ft | 434 kts | 159° |
| 2026-04-20 19:58 | 57.32778 | -3.44238 | 33723 ft | 436 kts | 159° |
| 2026-04-20 19:58 | 57.29901 | -3.42452 | 32982 ft | 436 kts | 159° |
| 2026-04-20 19:59 | 57.27032 | -3.40674 | 32270 ft | 434 kts | 159° |
| 2026-04-20 19:59 | 57.24173 | -3.38905 | 31552 ft | 432 kts | 159° |
| 2026-04-20 19:59 | 57.21339 | -3.37155 | 30994 ft | 426 kts | 159° |
| 2026-04-20 19:59 | 57.18551 | -3.35438 | 30462 ft | 419 kts | 158° |
| 2026-04-20 20:00 | 57.15812 | -3.33752 | 29862 ft | 411 kts | 158° |
| 2026-04-20 20:00 | 57.13127 | -3.32103 | 29339 ft | 402 kts | 158° |
| 2026-04-20 20:00 | 57.10501 | -3.30491 | 28834 ft | 394 kts | 158° |
| 2026-04-20 20:00 | 57.07928 | -3.28913 | 28329 ft | 386 kts | 158° |
| 2026-04-20 20:01 | 57.05400 | -3.27365 | 27846 ft | 379 kts | 159° |
| 2026-04-20 20:01 | 57.02915 | -3.25844 | 27338 ft | 374 kts | 158° |
| 2026-04-20 20:01 | 57.00465 | -3.24348 | 26852 ft | 368 kts | 158° |
| 2026-04-20 20:01 | 56.98055 | -3.22876 | 26372 ft | 363 kts | 158° |
| 2026-04-20 20:02 | 56.95678 | -3.21428 | 25902 ft | 357 kts | 158° |
| 2026-04-20 20:02 | 56.93334 | -3.20002 | 25429 ft | 353 kts | 158° |
| 2026-04-20 20:02 | 56.91014 | -3.18593 | 24963 ft | 349 kts | 158° |
| 2026-04-20 20:02 | 56.88728 | -3.17206 | 24501 ft | 344 kts | 158° |
| 2026-04-20 20:03 | 56.86499 | -3.15855 | 24060 ft | 340 kts | 158° |
| 2026-04-20 20:03 | 56.84264 | -3.14503 | 23547 ft | 336 kts | 158° |
| 2026-04-20 20:03 | 56.82062 | -3.13173 | 23093 ft | 332 kts | 158° |
| 2026-04-20 20:03 | 56.79877 | -3.11854 | 22657 ft | 330 kts | 158° |
| 2026-04-20 20:04 | 56.77703 | -3.10542 | 22198 ft | 330 kts | 158° |
| 2026-04-20 20:04 | 56.75478 | -3.09198 | 21723 ft | 345 kts | 159° |
| 2026-04-20 20:04 | 56.73174 | -3.07808 | 21201 ft | 350 kts | 159° |
| 2026-04-20 20:04 | 56.70785 | -3.06953 | 20686 ft | 352 kts | 176° |
| 2026-04-20 20:05 | 56.68368 | -3.07594 | 20304 ft | 352 kts | 192° |
| 2026-04-20 20:05 | 56.66156 | -3.09468 | 19921 ft | 352 kts | 208° |
| 2026-04-20 20:05 | 56.64133 | -3.11931 | 19466 ft | 349 kts | 210° |
| 2026-04-20 20:05 | 56.62150 | -3.14461 | 18996 ft | 347 kts | 211° |
| 2026-04-20 20:06 | 56.60180 | -3.16983 | 18495 ft | 345 kts | 211° |
| 2026-04-20 20:06 | 56.58223 | -3.19471 | 17971 ft | 343 kts | 211° |
| 2026-04-20 20:06 | 56.56272 | -3.21927 | 17500 ft | 339 kts | 211° |
| 2026-04-20 20:06 | 56.54337 | -3.24345 | 17031 ft | 336 kts | 211° |
| 2026-04-20 20:07 | 56.52411 | -3.26740 | 16571 ft | 337 kts | 211° |
| 2026-04-20 20:07 | 56.50474 | -3.29143 | 16107 ft | 338 kts | 211° |
| 2026-04-20 20:07 | 56.48518 | -3.31564 | 15637 ft | 343 kts | 211° |
| 2026-04-20 20:07 | 56.46536 | -3.34011 | 15160 ft | 346 kts | 211° |
| 2026-04-20 20:08 | 56.44562 | -3.36446 | 14789 ft | 332 kts | 211° |
| 2026-04-20 20:08 | 56.42729 | -3.38765 | 14233 ft | 314 kts | 212° |
| 2026-04-20 20:08 | 56.40995 | -3.41017 | 13740 ft | 299 kts | 212° |
| 2026-04-20 20:08 | 56.39325 | -3.43194 | 13295 ft | 296 kts | 212° |
| 2026-04-20 20:09 | 56.37607 | -3.45422 | 12899 ft | 316 kts | 212° |
| 2026-04-20 20:09 | 56.35760 | -3.47806 | 12438 ft | 332 kts | 212° |
| 2026-04-20 20:09 | 56.33916 | -3.50195 | 11946 ft | 317 kts | 212° |
| 2026-04-20 20:09 | 56.32188 | -3.52441 | 11506 ft | 297 kts | 212° |
| 2026-04-20 20:10 | 56.30552 | -3.54560 | 11092 ft | 283 kts | 211° |
| 2026-04-20 20:10 | 56.28967 | -3.56605 | 10875 ft | 278 kts | 211° |
| 2026-04-20 20:10 | 56.27378 | -3.58643 | 10778 ft | 295 kts | 211° |
| 2026-04-20 20:10 | 56.25667 | -3.60839 | 10636 ft | 291 kts | 212° |
| 2026-04-20 20:11 | 56.24102 | -3.62853 | 10320 ft | 273 kts | 213° |
| 2026-04-20 20:11 | 56.22602 | -3.64782 | 9924 ft | 258 kts | 212° |
| 2026-04-20 20:11 | 56.21172 | -3.66611 | 9613 ft | 248 kts | 212° |
| 2026-04-20 20:11 | 56.19791 | -3.68398 | 9336 ft | 243 kts | 216° |
| 2026-04-20 20:12 | 56.18645 | -3.70713 | 9101 ft | 256 kts | 232° |
| 2026-04-20 20:12 | 56.17575 | -3.73365 | 8736 ft | 264 kts | 231° |
| 2026-04-20 20:12 | 56.16474 | -3.76026 | 8332 ft | 269 kts | 231° |
| 2026-04-20 20:13 | 56.14204 | -3.81407 | 7544 ft | 265 kts | 230° |
| 2026-04-20 20:13 | 56.13095 | -3.84011 | 7160 ft | 260 kts | 228° |
| 2026-04-20 20:13 | 56.11718 | -3.85989 | 6752 ft | 253 kts | 200° |
| 2026-04-20 20:13 | 56.10026 | -3.86641 | 6460 ft | 248 kts | 184° |
| 2026-04-20 20:14 | 56.08310 | -3.87002 | 6193 ft | 249 kts | 184° |
| 2026-04-20 20:14 | 56.06593 | -3.87363 | 5927 ft | 249 kts | 183° |
| 2026-04-20 20:14 | 56.04875 | -3.87735 | 5671 ft | 249 kts | 184° |
| 2026-04-20 20:14 | 56.03179 | -3.88068 | 5398 ft | 241 kts | 178° |
| 2026-04-20 20:15 | 56.01570 | -3.87605 | 5125 ft | 233 kts | 160° |
| 2026-04-20 20:15 | 56.00001 | -3.86775 | 4881 ft | 236 kts | 159° |
| 2026-04-20 20:15 | 55.98430 | -3.85916 | 4633 ft | 235 kts | 159° |
| 2026-04-20 20:15 | 55.96876 | -3.85055 | 4419 ft | 232 kts | 159° |
| 2026-04-20 20:16 | 55.95342 | -3.84199 | 4204 ft | 229 kts | 159° |
| 2026-04-20 20:16 | 55.93838 | -3.83356 | 4052 ft | 225 kts | 159° |
| 2026-04-20 20:16 | 55.92337 | -3.82515 | 3999 ft | 227 kts | 159° |
| 2026-04-20 20:16 | 55.90833 | -3.81676 | 4002 ft | 225 kts | 159° |
| 2026-04-20 20:17 | 55.89343 | -3.80849 | 3991 ft | 224 kts | 159° |
| 2026-04-20 20:17 | 55.87889 | -3.80049 | 3989 ft | 220 kts | 159° |
| 2026-04-20 20:17 | 55.86423 | -3.79151 | 3715 ft | 224 kts | 149° |
| 2026-04-20 20:17 | 55.85309 | -3.77273 | 3477 ft | 217 kts | 115° |
| 2026-04-20 20:18 | 55.84992 | -3.74767 | 3363 ft | 201 kts | 91° |
| 2026-04-20 20:18 | 55.84974 | -3.72382 | 3236 ft | 185 kts | 89° |
| 2026-04-20 20:18 | 55.84974 | -3.70170 | 3085 ft | 173 kts | 89° |
| 2026-04-20 20:18 | 55.84983 | -3.68062 | 3019 ft | 170 kts | 89° |
| 2026-04-20 20:19 | 55.85258 | -3.66055 | 2993 ft | 169 kts | 58° |
| 2026-04-20 20:19 | 55.85914 | -3.64330 | 2997 ft | 169 kts | 61° |
| 2026-04-20 20:19 | 55.86500 | -3.62528 | 2993 ft | 165 kts | 62° |
| 2026-04-20 20:19 | 55.87053 | -3.60852 | 2965 ft | 154 kts | 62° |
| 2026-04-20 20:20 | 55.87595 | -3.59228 | 2851 ft | 153 kts | 61° |
| 2026-04-20 20:20 | 55.88145 | -3.57587 | 2631 ft | 150 kts | 62° |
| 2026-04-20 20:20 | 55.88665 | -3.56036 | 2450 ft | 144 kts | 62° |
| 2026-04-20 20:20 | 55.89184 | -3.54489 | 2240 ft | 146 kts | 62° |
| 2026-04-20 20:21 | 55.89705 | -3.52941 | 2036 ft | 145 kts | 62° |
| 2026-04-20 20:21 | 55.90211 | -3.51441 | 1835 ft | 134 kts | 62° |
| 2026-04-20 20:21 | 55.90662 | -3.50101 | 1651 ft | 123 kts | 63° |
| 2026-04-20 20:21 | 55.91106 | -3.48782 | 1483 ft | 122 kts | 62° |
| 2026-04-20 20:22 | 55.91540 | -3.47494 | 1309 ft | 122 kts | 62° |
| 2026-04-20 20:22 | 55.91978 | -3.46164 | 1150 ft | 124 kts | 59° |
| 2026-04-20 20:22 | 55.92425 | -3.44874 | 978 ft | 124 kts | 59° |
| 2026-04-20 20:22 | 55.92869 | -3.43558 | 794 ft | 123 kts | 60° |
| 2026-04-20 20:23 | 55.93302 | -3.42250 | 646 ft | 122 kts | 58° |
| 2026-04-20 20:23 | 55.93751 | -3.40946 | 466 ft | 125 kts | 59° |
| 2026-04-20 20:23 | 55.94198 | -3.39611 | 279 ft | 125 kts | 58° |
| 2026-04-20 20:23 | 55.94642 | -3.38311 | 124 ft | 120 kts | 58° |
| 2026-04-20 20:24 | 55.95015 | -3.37210 | 111 ft | 77 kts | 59° |
| 2026-04-20 20:24 | 55.95183 | -3.36706 | 113 ft | 22 kts | 58° |
| 2026-04-20 20:24 | 55.95253 | -3.36498 | 110 ft | 16 kts | 62° |
| 2026-04-20 20:24 | 55.95216 | -3.36374 | 113 ft | 13 kts | 148° |
| 2026-04-20 20:25 | 55.95152 | -3.36302 | 115 ft | 8 kts | 137° |
| 2026-04-20 20:25 | 55.95157 | -3.36211 | 111 ft | 8 kts | 59° |
| 2026-04-20 20:25 | 55.95188 | -3.36120 | 115 ft | 10 kts | 59° |
| 2026-04-20 20:25 | 55.95228 | -3.36002 | 113 ft | 12 kts | 59° |
| 2026-04-20 20:26 | 55.95269 | -3.35881 | 112 ft | 6 kts | 66° |
| 2026-04-20 20:26 | 55.95270 | -3.35874 | 115 ft | 1 kts | 73° |
| 2026-04-20 20:26 | 55.95269 | -3.35853 | 115 ft | 3 kts | 111° |
| 2026-04-20 20:26 | 55.95242 | -3.35813 | 114 ft | 6 kts | 145° |
| 2026-04-20 20:27 | 55.95213 | -3.35753 | 94 ft | 7 kts | 121° |
| 2026-04-20 20:27 | 55.95190 | -3.35677 | 114 ft | 7 kts | 118° |
| 2026-04-20 20:27 | 55.95164 | -3.35594 | 115 ft | 8 kts | 116° |
| 2026-04-20 20:27 | 55.95184 | -3.35544 | 114 ft | 5 kts | 31° |
| 2026-04-20 20:28 | 55.95198 | -3.35530 | 115 ft | 2 kts | 30° |
| 2026-04-20 20:28 | 55.95202 | -3.35526 | 112 ft | 0 kts | 29° |
| 2026-04-20 20:37 | 55.95202 | -3.35525 | 112 ft | 0 kts | 32° |
| 2026-04-20 20:45 | 55.95204 | -3.35524 | 115 ft | 0 kts | 28° |